Portada
METAR-TAF:

METAR-TAF

Aeroports :

Vínnitsia, Ucraïna

latitud: 49-14-23N, longitud: 028-36-50E, altitud: 974 m

Observació

L'informe es va fer fa 28 minuts, a les 04:30 UTC
Vent 10 kt del Oest
Temperatura 2°C
Humitat 80%
Pressió 1014 hPa
Visibilitat 10 km o més
Cel ennuvolat a una alçada de 2400 ft

METAR: UKWW 230430Z 26005MPS 9999 BKN024 02/M01 Q1014 NOSIG

Hora: 06:58 (04:58 UTC)

Pronòstic

L'informe es va fer fa 11 hores i 48 minuts, a les 17:10 UTC
Pronòstic vàlid del 22 a les 18 UTC al 23 a les 03 UTC
Vent 6 kt del Oest/Sud-Oest amb ràfegues de 16 kt
Visibilitat 10 km o més
Cel ennuvolat a una alçada de 3000 ft

TAF: UKWW 221710Z 2218/2303 24003G08MPS 9999 BKN030 TX02/2218Z TN01/2303Z

Observacions i pronòstics meteorològics de més de 4000 aeroports (METAR i TAF).

Les estacions disponibles són els punts grocs i vermells al mapa.

Posi el ratolí al punt desitjat per veure el nom de l'estació.

Feu clic per veure les observacions i els pronòstics meteorològics.

Per canviar el mapa: feu clic els botons verds amb una creu de color negre per apropar; al botó verd amb un guió per allunyar la imatge; o en les fletxes verdes per a mapes adjacents.


METAR-TAF: